Time;durP1;ratioP1;P1;durP2;ratioP2;P2;SDS_P1;SDS_P2;PMS_P1;PMS_P2;Temp;Humidity;BMP_temperature;BMP_pressure;BME280_temperature;BME280_humidity;BME280_pressure;Samples;Min_cycle;Max_cycle;Signal;HPM_P1;HPM_P2
2023/05/10 00:01:37;;;;;;;23.10;13.20;;;;;;;3.50;65.02;97465.79;108898;1250;95995;-76
2023/05/10 00:04:05;;;;;;;19.70;12.40;;;;;;;3.45;64.98;97462.41;108881;1250;103644;-72
2023/05/10 00:06:33;;;;;;;19.00;10.50;;;;;;;3.42;65.16;97460.01;108846;1250;101162;-72
2023/05/10 00:09:01;;;;;;;20.10;11.70;;;;;;;3.40;65.17;97457.05;108834;1250;99498;-72
2023/05/10 00:11:29;;;;;;;16.30;11.00;;;;;;;3.37;65.29;97460.59;108840;1250;95577;-72
2023/05/10 00:13:57;;;;;;;15.40;10.60;;;;;;;3.34;65.32;97458.13;108843;1250;96039;-75
2023/05/10 00:16:25;;;;;;;16.00;10.30;;;;;;;3.32;65.43;97457.27;108894;1250;102406;-74
2023/05/10 00:18:53;;;;;;;20.50;9.80;;;;;;;3.31;65.45;97455.73;108876;1250;101390;-72
2023/05/10 00:21:22;;;;;;;14.60;9.00;;;;;;;3.28;65.54;97453.02;108861;1250;99769;-74
2023/05/10 00:23:50;;;;;;;15.40;9.50;;;;;;;3.24;65.60;97450.03;108774;1250;95682;-72
2023/05/10 00:26:18;;;;;;;16.20;8.40;;;;;;;3.24;65.69;97454.45;108882;1250;96013;-72
2023/05/10 00:28:46;;;;;;;15.80;9.60;;;;;;;3.23;65.76;97454.19;108870;1250;103748;-73
2023/05/10 00:31:14;;;;;;;18.30;9.00;;;;;;;3.22;65.77;97453.82;108884;1251;101492;-72
2023/05/10 00:33:42;;;;;;;18.80;10.20;;;;;;;3.19;65.81;97454.14;108888;1250;99863;-72
2023/05/10 00:36:10;;;;;;;17.90;9.40;;;;;;;3.16;65.88;97453.89;108869;1250;95591;-76
2023/05/10 00:38:38;;;;;;;14.70;8.80;;;;;;;3.14;65.99;97455.32;108867;1250;96033;-72
2023/05/10 00:41:06;;;;;;;17.10;8.90;;;;;;;3.15;66.09;97455.75;108887;1250;103612;-72
2023/05/10 00:43:34;;;;;;;14.80;9.20;;;;;;;3.17;66.21;97451.63;108909;1253;101463;-72
2023/05/10 00:46:02;;;;;;;16.60;9.70;;;;;;;3.20;66.14;97452.58;108594;1250;100042;-71
2023/05/10 00:48:31;;;;;;;16.90;8.90;;;;;;;3.19;66.09;97455.20;108588;1251;95757;-73
2023/05/10 00:50:59;;;;;;;16.90;9.20;;;;;;;3.16;66.23;97453.39;108906;1250;96391;-72
2023/05/10 00:53:28;;;;;;;19.00;8.40;;;;;;;3.13;66.20;97448.86;108927;1250;103148;-77
2023/05/10 00:55:56;;;;;;;12.80;8.10;;;;;;;3.11;66.26;97448.77;108888;1250;101884;-72
2023/05/10 00:58:27;;;;;;;11.80;7.40;;;;;;;3.07;66.34;97451.85;108868;1250;100350;-75
2023/05/10 01:00:57;;;;;;;10.90;7.60;;;;;;;3.04;66.35;97450.27;108829;1250;95537;-77
2023/05/10 01:03:26;;;;;;;12.70;8.50;;;;;;;3.00;66.42;97449.84;108878;1250;95628;-74
2023/05/10 01:05:55;;;;;;;16.50;10.40;;;;;;;2.95;66.57;97451.08;108629;1250;103677;-72
2023/05/10 01:08:23;;;;;;;16.90;9.20;;;;;;;2.90;66.65;97450.49;108911;1250;101488;-71
2023/05/10 01:10:52;;;;;;;12.80;7.30;;;;;;;2.85;66.69;97449.06;108926;1250;100213;-73
2023/05/10 01:13:39;;;;;;;9.80;7.20;;;;;;;2.78;66.67;97447.20;108849;1250;95591;-71
2023/05/10 01:16:07;;;;;;;13.30;7.10;;;;;;;2.70;66.88;97442.27;108893;1250;96009;-74
2023/05/10 01:18:39;;;;;;;10.60;7.30;;;;;;;2.70;66.97;97440.73;108894;1250;103797;-72
2023/05/10 01:21:43;;;;;;;10.70;6.90;;;;;;;2.68;66.99;97440.98;108655;1250;100475;-72
2023/05/10 01:24:41;;;;;;;12.10;7.50;;;;;;;2.62;67.09;97438.62;108829;1250;100122;-76
2023/05/10 01:27:31;;;;;;;9.50;6.50;;;;;;;2.60;67.15;97435.64;108600;1250;95685;-76
2023/05/10 01:30:17;;;;;;;9.30;6.90;;;;;;;2.58;67.10;97434.89;108796;1250;96029;-70
2023/05/10 01:33:00;;;;;;;9.50;6.70;;;;;;;2.57;67.28;97433.56;108885;1250;103550;-71
2023/05/10 01:35:51;;;;;;;8.40;6.70;;;;;;;2.53;67.30;97435.72;108864;1250;101456;-72
2023/05/10 01:38:50;;;;;;;9.80;6.10;;;;;;;2.47;67.18;97430.92;108856;1250;100033;-73
2023/05/10 01:41:18;;;;;;;10.90;7.70;;;;;;;2.39;67.22;97430.96;108869;1250;95583;-72
2023/05/10 01:44:25;;;;;;;12.60;8.00;;;;;;;2.36;67.31;97435.73;108888;1250;96346;-72
2023/05/10 01:47:08;;;;;;;14.50;10.50;;;;;;;2.35;67.46;97436.10;108935;1253;103048;-72
2023/05/10 01:49:40;;;;;;;;;;;;;;;2.30;67.46;97438.17;108905;1250;100094;-75
2023/05/10 01:52:13;;;;;;;13.50;10.40;;;;;;;2.26;67.76;97436.52;108880;1250;100079;-72
2023/05/10 01:54:45;;;;;;;11.30;7.80;;;;;;;2.26;67.76;97433.69;108836;1250;95547;-75
2023/05/10 01:57:15;;;;;;;9.40;6.70;;;;;;;2.24;67.75;97429.73;108710;1251;96039;-74
2023/05/10 01:59:46;;;;;;;12.60;7.60;;;;;;;2.23;67.64;97427.38;108883;1250;103652;-75
2023/05/10 02:02:16;;;;;;;12.70;7.80;;;;;;;2.19;67.66;97425.80;108696;1251;100382;-75
2023/05/10 02:04:46;;;;;;;12.20;8.10;;;;;;;2.12;67.86;97425.49;108834;1250;99911;-73
2023/05/10 02:07:15;;;;;;;12.60;8.10;;;;;;;2.06;68.00;97420.59;108877;1250;95842;-72
2023/05/10 02:09:47;;;;;;;10.70;7.10;;;;;;;2.06;68.14;97417.23;108859;1253;96002;-72
2023/05/10 02:12:17;;;;;;;11.60;7.30;;;;;;;2.07;68.14;97414.95;108837;1250;103717;-75
2023/05/10 02:14:46;;;;;;;10.60;7.30;;;;;;;2.10;68.18;97412.26;108896;1250;100656;-74
2023/05/10 02:17:15;;;;;;;11.30;7.70;;;;;;;2.08;68.23;97413.84;108915;1250;100017;-73
2023/05/10 02:19:45;;;;;;;13.70;8.30;;;;;;;2.05;68.30;97411.84;108869;1250;95553;-74
2023/05/10 02:22:14;;;;;;;8.90;6.90;;;;;;;2.02;68.34;97405.98;108900;1250;97070;-72
2023/05/10 02:24:44;;;;;;;11.90;7.30;;;;;;;1.99;68.29;97409.30;108859;1250;103763;-72
2023/05/10 02:27:13;;;;;;;8.30;6.50;;;;;;;1.95;68.28;97410.36;108927;1250;101282;-72
2023/05/10 02:29:42;;;;;;;9.60;6.80;;;;;;;1.91;68.31;97410.50;108867;1250;100123;-74
2023/05/10 02:32:11;;;;;;;10.50;7.70;;;;;;;1.85;68.29;97411.41;108837;1250;95663;-72
2023/05/10 02:34:40;;;;;;;11.70;8.50;;;;;;;1.77;68.34;97409.71;108899;1250;97023;-73
2023/05/10 02:37:09;;;;;;;14.60;8.90;;;;;;;1.74;68.51;97410.09;108884;1250;103737;-72
2023/05/10 02:39:40;;;;;;;11.00;7.90;;;;;;;1.75;68.64;97405.88;108862;1250;101344;-72
2023/05/10 02:42:09;;;;;;;9.30;7.00;;;;;;;1.77;68.63;97407.06;108893;1253;100549;-72
2023/05/10 02:44:38;;;;;;;12.20;8.10;;;;;;;1.75;68.60;97408.04;108840;1250;95535;-73
2023/05/10 02:47:06;;;;;;;13.60;8.10;;;;;;;1.68;68.59;97409.39;108920;1250;95943;-71
2023/05/10 02:49:35;;;;;;;13.00;9.20;;;;;;;1.62;68.64;97408.80;108611;1250;104700;-75
2023/05/10 02:52:08;;;;;;;12.60;8.80;;;;;;;1.62;68.81;97408.08;108911;1250;101453;-72
2023/05/10 02:54:47;;;;;;;15.90;8.60;;;;;;;1.64;68.92;97410.95;108862;1252;99034;-74
2023/05/10 02:57:19;;;;;;;15.20;8.90;;;;;;;1.63;69.02;97411.31;108764;1251;95603;-72
2023/05/10 02:59:47;;;;;;;16.60;9.10;;;;;;;1.63;69.04;97411.88;108961;1250;96569;-73
2023/05/10 03:02:15;;;;;;;9.30;7.60;;;;;;;1.63;68.97;97413.34;108647;1250;103667;-71
2023/05/10 03:04:43;;;;;;;10.50;6.90;;;;;;;1.63;68.94;97412.64;108602;1251;100233;-74
2023/05/10 03:07:11;;;;;;;10.00;7.40;;;;;;;1.64;68.98;97413.55;108770;1251;97929;-72
2023/05/10 03:09:40;;;;;;;11.10;8.20;;;;;;;1.67;69.09;97414.88;108834;1251;95548;-76
2023/05/10 03:12:30;;;;;;;13.00;9.40;;;;;;;1.70;68.97;97416.34;108812;1251;96994;-71
2023/05/10 03:15:07;;;;;;;10.70;8.40;;;;;;;1.72;69.07;97411.16;108847;1251;103603;-71
2023/05/10 03:17:58;;;;;;;11.90;8.90;;;;;;;1.72;69.10;97411.17;108845;1250;101531;-72
2023/05/10 03:20:30;;;;;;;15.20;9.30;;;;;;;1.71;68.97;97409.44;108846;1250;100203;-71
2023/05/10 03:23:08;;;;;;;13.80;8.90;;;;;;;1.70;68.99;97408.33;108736;1251;95693;-72
2023/05/10 03:25:37;;;;;;;17.00;8.70;;;;;;;1.69;69.05;97407.20;108841;1250;95959;-70
2023/05/10 03:28:06;;;;;;;14.90;8.40;;;;;;;1.70;69.17;97411.18;108930;1250;103900;-73
2023/05/10 03:30:35;;;;;;;16.10;8.70;;;;;;;1.69;69.20;97416.73;108933;1250;101480;-72
2023/05/10 03:33:07;;;;;;;12.70;9.20;;;;;;;1.67;69.15;97414.38;108893;1250;99056;-72
2023/05/10 03:35:35;;;;;;;14.40;9.60;;;;;;;1.66;69.17;97409.98;108916;1250;95768;-76
2023/05/10 03:38:03;;;;;;;16.30;11.10;;;;;;;1.66;69.24;97410.15;108618;1250;95697;-71
2023/05/10 03:40:32;;;;;;;19.30;9.90;;;;;;;1.68;69.31;97408.42;108945;1250;103594;-75
2023/05/10 03:43:00;;;;;;;23.10;10.70;;;;;;;1.67;69.31;97406.89;108891;1250;100385;-72
2023/05/10 03:45:28;;;;;;;22.20;10.50;;;;;;;1.64;69.34;97408.94;108887;1250;108524;-72
2023/05/10 03:47:56;;;;;;;14.00;9.80;;;;;;;1.64;69.49;97408.23;108869;1250;95764;-74
2023/05/10 03:50:26;;;;;;;19.50;9.60;;;;;;;1.65;69.49;97407.13;108933;1250;95994;-72
2023/05/10 03:52:54;;;;;;;16.80;8.90;;;;;;;1.65;69.57;97405.00;108919;1250;103452;-72
2023/05/10 03:55:22;;;;;;;14.80;7.70;;;;;;;1.67;69.62;97402.13;108870;1250;101176;-73
2023/05/10 03:57:50;;;;;;;14.30;7.80;;;;;;;1.70;69.64;97403.57;108873;1250;99927;-73
2023/05/10 04:00:18;;;;;;;10.60;7.50;;;;;;;1.72;69.88;97399.05;108861;1250;95802;-74
2023/05/10 04:02:46;;;;;;;14.30;7.00;;;;;;;1.75;69.90;97401.08;108850;1250;95961;-72
2023/05/10 04:05:15;;;;;;;10.40;7.20;;;;;;;1.79;69.98;97401.19;108920;1250;103548;-72
2023/05/10 04:07:44;;;;;;;30.30;17.70;;;;;;;1.84;70.00;97400.04;108899;1250;101355;-72
2023/05/10 04:10:12;;;;;;;30.10;17.00;;;;;;;1.90;70.07;97404.57;108875;1250;99875;-72
2023/05/10 04:12:40;;;;;;;26.40;16.30;;;;;;;1.95;70.21;97403.83;108884;1250;95572;-72
2023/05/10 04:15:09;;;;;;;26.30;15.80;;;;;;;2.00;70.36;97405.83;108898;1250;96025;-76
2023/05/10 04:17:37;;;;;;;17.80;11.60;;;;;;;2.04;70.31;97401.13;108855;1250;103264;-72
2023/05/10 04:20:06;;;;;;;20.50;12.80;;;;;;;2.10;70.32;97399.08;108881;1250;101417;-72
2023/05/10 04:22:34;;;;;;;23.60;13.60;;;;;;;2.16;70.41;97398.91;108616;1251;100015;-72
2023/05/10 04:25:02;;;;;;;68.50;44.40;;;;;;;2.22;70.47;97399.77;108826;1250;95645;-72
2023/05/10 04:27:30;;;;;;;39.40;25.00;;;;;;;2.27;70.55;97400.02;108813;1250;96016;-73
2023/05/10 04:29:59;;;;;;;23.80;13.90;;;;;;;2.31;70.63;97398.48;108891;1250;103716;-72
2023/05/10 04:32:27;;;;;;;22.70;13.40;;;;;;;2.34;70.76;97399.33;108915;1250;100532;-72
2023/05/10 04:34:56;;;;;;;20.90;15.20;;;;;;;2.39;70.70;97399.03;108851;1250;99920;-74
2023/05/10 04:37:24;;;;;;;29.50;18.20;;;;;;;2.45;70.78;97399.59;108893;1250;95902;-72
2023/05/10 04:39:52;;;;;;;29.40;18.50;;;;;;;2.51;70.84;97401.45;108936;1250;96051;-71
2023/05/10 04:42:20;;;;;;;29.00;18.40;;;;;;;2.58;70.90;97399.55;108952;1250;103628;-72
2023/05/10 04:44:48;;;;;;;51.90;31.70;;;;;;;2.65;71.02;97394.91;108929;1250;101557;-73
2023/05/10 04:47:16;;;;;;;65.50;36.20;;;;;;;2.72;71.10;97395.58;108899;1250;100098;-73
2023/05/10 04:49:44;;;;;;;61.40;36.40;;;;;;;2.78;71.07;97390.95;108571;1250;96136;-76
2023/05/10 04:52:12;;;;;;;51.20;31.90;;;;;;;2.85;71.23;97394.15;108905;1250;96418;-73
2023/05/10 04:54:40;;;;;;;41.90;26.20;;;;;;;2.94;71.31;97394.66;108922;1250;102101;-73
2023/05/10 04:57:08;;;;;;;26.10;18.40;;;;;;;3.02;71.42;97392.52;108913;1250;101405;-70
2023/05/10 04:59:37;;;;;;;26.90;15.80;;;;;;;3.11;71.52;97390.58;108697;1251;99107;-72
2023/05/10 05:02:06;;;;;;;23.20;14.10;;;;;;;3.22;71.54;97391.59;108831;1250;95612;-78
2023/05/10 05:04:34;;;;;;;21.70;12.90;;;;;;;3.32;71.59;97388.20;108590;1256;96017;-73
2023/05/10 05:07:02;;;;;;;18.60;10.90;;;;;;;3.41;71.73;97390.73;108878;1250;103462;-75
2023/05/10 05:09:31;;;;;;;17.30;12.60;;;;;;;3.51;71.79;97389.65;108908;1250;101249;-73
2023/05/10 05:11:59;;;;;;;21.70;13.30;;;;;;;3.61;71.76;97384.84;108506;1250;101170;-73
2023/05/10 05:14:28;;;;;;;19.90;13.70;;;;;;;3.71;71.83;97384.74;108843;1250;95616;-75
2023/05/10 05:16:56;;;;;;;17.90;12.80;;;;;;;3.81;71.87;97380.38;108871;1251;96023;-73
2023/05/10 05:19:24;;;;;;;22.50;13.60;;;;;;;3.92;72.01;97376.02;108876;1250;103543;-74
2023/05/10 05:21:52;;;;;;;22.80;13.70;;;;;;;4.03;72.07;97373.73;108903;1250;101377;-73
2023/05/10 05:24:21;;;;;;;19.70;11.60;;;;;;;4.12;71.92;97368.41;108889;1250;99090;-76
2023/05/10 05:26:49;;;;;;;19.30;11.10;;;;;;;4.23;71.61;97364.85;108879;1250;95622;-72
2023/05/10 05:29:17;;;;;;;20.50;11.20;;;;;;;4.35;71.49;97366.36;108950;1250;96003;-72
2023/05/10 05:31:45;;;;;;;16.00;10.20;;;;;;;4.46;71.14;97368.45;108934;1250;103601;-73
2023/05/10 05:34:13;;;;;;;17.50;10.70;;;;;;;4.57;71.15;97367.00;108590;1251;101113;-73
2023/05/10 05:36:41;;;;;;;17.30;11.00;;;;;;;4.68;71.23;97365.70;108888;1250;100212;-76
2023/05/10 05:39:10;;;;;;;18.90;11.00;;;;;;;4.81;71.35;97365.23;108502;1251;95938;-73
2023/05/10 05:41:38;;;;;;;17.30;11.10;;;;;;;4.95;71.46;97365.92;108856;1250;96375;-72
2023/05/10 05:44:06;;;;;;;19.60;10.30;;;;;;;5.08;71.35;97366.46;108894;1250;103617;-73
2023/05/10 05:46:34;;;;;;;18.60;10.30;;;;;;;5.22;71.40;97360.41;108960;1250;101288;-73
2023/05/10 05:49:02;;;;;;;18.30;10.40;;;;;;;5.35;71.39;97359.16;108923;1250;99807;-76
2023/05/10 05:51:31;;;;;;;17.20;11.00;;;;;;;5.48;71.13;97355.73;108611;1251;95664;-75
2023/05/10 05:53:59;;;;;;;16.20;10.60;;;;;;;5.64;70.62;97357.56;108928;1250;95982;-73
2023/05/10 05:56:27;;;;;;;15.90;10.60;;;;;;;5.79;70.48;97354.69;108945;1250;103425;-73
2023/05/10 05:58:56;;;;;;;18.20;10.20;;;;;;;5.93;70.21;97356.29;108922;1250;101258;-73
2023/05/10 06:01:24;;;;;;;35.50;19.00;;;;;;;6.09;69.73;97356.15;108881;1250;100437;-73
2023/05/10 06:03:52;;;;;;;46.60;24.80;;;;;;;6.28;69.52;97353.99;108888;1250;95631;-73
2023/05/10 06:06:20;;;;;;;58.00;27.70;;;;;;;6.42;69.38;97358.14;108906;1250;95948;-76
2023/05/10 06:08:48;;;;;;;52.70;26.80;;;;;;;6.56;69.11;97355.56;108548;1250;103327;-73
2023/05/10 06:11:17;;;;;;;44.40;23.10;;;;;;;6.70;68.79;97352.43;108967;1250;101421;-73
2023/05/10 06:13:45;;;;;;;38.10;21.60;;;;;;;6.83;68.67;97349.16;108851;1250;99793;-73
2023/05/10 06:16:13;;;;;;;28.90;17.10;;;;;;;6.99;68.42;97347.92;108895;1253;95843;-73
2023/05/10 06:18:41;;;;;;;29.20;15.00;;;;;;;7.14;68.21;97350.27;108770;1250;96478;-73
2023/05/10 06:21:09;;;;;;;24.80;12.80;;;;;;;7.27;67.99;97348.71;108947;1250;103515;-73
2023/05/10 06:23:38;;;;;;;25.70;13.60;;;;;;;7.40;67.89;97346.11;108756;1250;101346;-73
2023/05/10 06:26:06;;;;;;;23.50;12.40;;;;;;;7.54;67.64;97341.86;108847;1250;99845;-73
2023/05/10 06:28:34;;;;;;;17.20;11.00;;;;;;;7.69;67.65;97341.73;108780;1250;95619;-73
2023/05/10 06:31:02;;;;;;;14.10;8.80;;;;;;;7.84;67.29;97338.52;108865;1251;96000;-72
2023/05/10 06:33:30;;;;;;;17.80;9.10;;;;;;;8.00;67.11;97342.98;108510;1251;103633;-72
2023/05/10 06:35:58;;;;;;;13.90;8.90;;;;;;;8.17;66.61;97335.98;108844;1252;101032;-75
2023/05/10 06:38:27;;;;;;;14.20;8.20;;;;;;;8.38;66.71;97337.98;108398;1253;99920;-73
2023/05/10 06:40:55;;;;;;;11.80;7.20;;;;;;;8.60;66.62;97336.11;108792;1250;95699;-73
2023/05/10 06:43:24;;;;;;;9.20;7.30;;;;;;;8.81;66.44;97333.13;108892;1250;96349;-72
2023/05/10 06:45:53;;;;;;;14.30;8.00;;;;;;;8.97;66.09;97329.79;108769;1250;104139;-74
2023/05/10 06:48:21;;;;;;;11.80;7.10;;;;;;;9.13;65.79;97330.70;108868;1250;101449;-76
2023/05/10 06:50:49;;;;;;;9.40;6.00;;;;;;;9.30;65.41;97327.20;108779;1250;99950;-73
2023/05/10 06:53:17;;;;;;;17.00;7.30;;;;;;;9.53;65.15;97322.74;108818;1250;95583;-72
2023/05/10 06:55:45;;;;;;;12.20;6.50;;;;;;;9.70;64.87;97327.56;108856;1250;96073;-72
2023/05/10 06:58:13;;;;;;;11.50;6.40;;;;;;;9.84;64.37;97327.59;108856;1251;103844;-73
2023/05/10 07:00:43;;;;;;;13.50;6.10;;;;;;;9.96;63.83;97325.64;108896;1250;101213;-73
2023/05/10 07:03:11;;;;;;;8.60;5.80;;;;;;;10.12;63.87;97320.39;108804;1251;100340;-72
2023/05/10 07:05:39;;;;;;;9.50;5.40;;;;;;;10.29;63.61;97321.04;108791;1251;95585;-73
2023/05/10 07:08:08;;;;;;;10.80;4.90;;;;;;;10.43;62.69;97321.29;108868;1251;95917;-73
2023/05/10 07:10:36;;;;;;;9.20;4.50;;;;;;;10.56;62.00;97322.41;108831;1253;103551;-72
2023/05/10 07:13:04;;;;;;;7.60;4.30;;;;;;;10.71;61.41;97320.40;108908;1251;101008;-73
2023/05/10 07:15:33;;;;;;;4.40;3.70;;;;;;;10.86;60.96;97319.79;108821;1251;100541;-73
2023/05/10 07:18:01;;;;;;;5.40;4.20;;;;;;;11.06;60.64;97320.63;108935;1253;96836;-76
2023/05/10 07:20:29;;;;;;;6.60;3.20;;;;;;;11.27;60.53;97323.04;108410;1250;96447;-72
2023/05/10 07:22:57;;;;;;;3.90;2.80;;;;;;;11.46;59.56;97322.38;108889;1250;103741;-73
2023/05/10 07:25:26;;;;;;;3.30;2.50;;;;;;;11.61;58.66;97317.83;108912;1250;101431;-72
2023/05/10 07:27:54;;;;;;;3.80;2.50;;;;;;;11.77;57.90;97312.42;108876;1250;100149;-73
2023/05/10 07:30:22;;;;;;;3.70;3.10;;;;;;;11.98;56.94;97312.66;108903;1251;95554;-75
2023/05/10 07:32:50;;;;;;;4.60;2.50;;;;;;;12.24;56.62;97308.04;108932;1250;95587;-73
2023/05/10 07:35:18;;;;;;;2.70;2.20;;;;;;;12.61;55.75;97307.75;108864;1251;103533;-73
2023/05/10 07:37:48;;;;;;;3.60;2.80;;;;;;;13.10;55.52;97306.13;108904;1251;101418;-77
2023/05/10 07:40:16;;;;;;;3.30;2.50;;;;;;;13.67;55.03;97305.23;108777;1250;100064;-76
2023/05/10 07:42:44;;;;;;;5.40;2.40;;;;;;;14.23;53.76;97308.84;108843;1250;95558;-72
2023/05/10 07:45:12;;;;;;;4.80;2.40;;;;;;;14.78;52.89;97307.69;108644;1251;96692;-73
2023/05/10 07:47:40;;;;;;;9.00;3.10;;;;;;;15.35;52.49;97307.71;108854;1250;103669;-73
2023/05/10 07:50:09;;;;;;;3.00;2.70;;;;;;;15.88;51.26;97305.13;108891;1250;100260;-73
2023/05/10 07:52:37;;;;;;;4.20;2.40;;;;;;;16.34;50.00;97296.69;108867;1250;99887;-73
2023/05/10 07:55:07;;;;;;;2.70;2.40;;;;;;;16.73;48.98;97292.20;108870;1251;95746;-78
2023/05/10 07:57:36;;;;;;;4.50;1.80;;;;;;;17.10;48.30;97294.55;108730;1251;95763;-73
2023/05/10 08:00:04;;;;;;;3.30;2.10;;;;;;;17.56;47.02;97295.52;108849;1251;102740;-76
2023/05/10 08:02:32;;;;;;;3.10;2.10;;;;;;;18.03;46.40;97295.31;108898;1250;101417;-73
2023/05/10 08:05:00;;;;;;;1.70;1.60;;;;;;;18.51;46.58;97294.89;108974;1250;99945;-73
2023/05/10 08:07:28;;;;;;;3.00;2.20;;;;;;;18.96;45.81;97297.59;109030;1250;95516;-75
2023/05/10 08:09:56;;;;;;;6.60;2.20;;;;;;;19.36;44.33;97296.58;108997;1251;95891;-73
2023/05/10 08:12:25;;;;;;;5.70;1.90;;;;;;;19.70;43.42;97299.07;109032;1250;103583;-73
2023/05/10 08:14:53;;;;;;;2.20;1.80;;;;;;;20.04;43.15;97297.87;108891;1251;101482;-73
2023/05/10 08:17:21;;;;;;;4.90;2.80;;;;;;;20.41;42.53;97291.23;108477;1251;99864;-74
2023/05/10 08:19:49;;;;;;;2.40;2.20;;;;;;;20.76;41.74;97289.29;108803;1255;95675;-76
2023/05/10 08:22:17;;;;;;;4.10;2.40;;;;;;;21.04;41.04;97285.17;108892;1251;95714;-74
2023/05/10 08:24:45;;;;;;;2.90;2.00;;;;;;;21.26;40.58;97284.59;108927;1250;103787;-74
2023/05/10 08:27:14;;;;;;;2.50;2.00;;;;;;;21.54;39.22;97283.41;108916;1250;99530;-74
2023/05/10 08:29:42;;;;;;;6.20;2.40;;;;;;;21.85;39.14;97281.15;108912;1251;99458;-74
2023/05/10 08:32:10;;;;;;;3.10;2.30;;;;;;;22.12;38.20;97279.09;108875;1250;95511;-74
2023/05/10 08:34:38;;;;;;;3.00;1.90;;;;;;;22.41;37.31;97277.99;108384;1251;96432;-74
2023/05/10 08:37:06;;;;;;;3.40;2.20;;;;;;;22.74;36.91;97280.02;108613;1251;102435;-71
2023/05/10 08:39:38;;;;;;;4.80;2.10;;;;;;;23.04;37.05;97278.79;108884;1250;100564;-72
2023/05/10 08:42:08;;;;;;;2.20;2.00;;;;;;;23.42;36.39;97281.00;108712;1251;98515;-74
2023/05/10 08:44:37;;;;;;;2.20;2.00;;;;;;;23.77;35.36;97278.34;108864;1250;95917;-71
2023/05/10 08:47:07;;;;;;;2.70;2.20;;;;;;;24.12;34.50;97275.42;108881;1255;96752;-71
2023/05/10 08:49:36;;;;;;;2.90;1.90;;;;;;;24.45;34.41;97275.71;108916;1250;103453;-75
2023/05/10 08:52:07;;;;;;;2.60;2.00;;;;;;;24.64;33.49;97276.72;108893;1250;101020;-74
2023/05/10 08:54:35;;;;;;;2.50;1.80;;;;;;;24.75;32.89;97277.29;108899;1251;99865;-72
2023/05/10 08:57:04;;;;;;;3.90;2.30;;;;;;;24.90;32.69;97266.95;108869;1251;95531;-72
2023/05/10 08:59:33;;;;;;;2.20;2.00;;;;;;;25.05;32.56;97271.44;108930;1251;95886;-72
2023/05/10 09:02:02;;;;;;;2.70;1.80;;;;;;;25.25;32.29;97273.09;108886;1251;103578;-72
2023/05/10 09:04:31;;;;;;;2.90;1.80;;;;;;;25.56;32.42;97267.67;108922;1250;101311;-72
2023/05/10 09:07:00;;;;;;;2.50;1.70;;;;;;;25.82;32.16;97264.92;108896;1251;99035;-72
2023/05/10 09:09:29;;;;;;;2.30;2.10;;;;;;;26.00;32.04;97267.10;108888;1251;95618;-71
2023/05/10 09:11:57;;;;;;;2.40;2.10;;;;;;;26.04;31.42;97268.98;108899;1250;95849;-75
2023/05/10 09:14:26;;;;;;;2.20;1.90;;;;;;;25.55;31.14;97270.61;108893;1250;104066;-72
2023/05/10 09:16:55;;;;;;;2.40;2.10;;;;;;;24.91;30.69;97269.36;108907;1251;101888;-72
2023/05/10 09:19:23;;;;;;;4.90;2.20;;;;;;;24.65;30.86;97268.59;108680;1251;101914;-72
2023/05/10 09:21:51;;;;;;;2.40;2.10;;;;;;;24.80;31.23;97267.54;108891;1251;95570;-71
2023/05/10 09:24:20;;;;;;;2.10;1.90;;;;;;;25.03;31.18;97267.09;108926;1251;95832;-73
2023/05/10 09:26:50;;;;;;;2.50;2.00;;;;;;;25.20;29.80;97264.71;108539;1251;220166;-73
2023/05/10 09:29:18;;;;;;;2.20;2.00;;;;;;;25.15;29.61;97260.79;108854;1252;101303;-72
2023/05/10 09:31:54;;;;;;;2.70;2.50;;;;;;;25.13;29.64;97261.70;108847;1250;99000;-75
2023/05/10 09:34:34;;;;;;;4.40;3.60;;;;;;;24.75;29.45;97262.06;108588;1251;95645;-72
2023/05/10 09:37:04;;;;;;;4.10;2.20;;;;;;;24.16;29.44;97263.50;108921;1251;95690;-72
2023/05/10 10:13:31;;;;;;;3.00;2.40;;;;;;;20.60;33.51;97248.30;102213;1294;635758;-74
2023/05/10 10:16:00;;;;;;;5.10;2.40;;;;;;;20.56;33.14;97245.80;104446;1269;96061;-74
2023/05/10 10:18:28;;;;;;;4.00;2.70;;;;;;;20.50;32.29;97240.77;104430;1272;95873;-75
2023/05/10 10:20:57;;;;;;;3.30;2.20;;;;;;;20.41;32.18;97236.73;104041;1273;99657;-76
2023/05/10 10:23:26;;;;;;;4.20;2.60;;;;;;;20.35;32.51;97236.02;104305;1269;101928;-77
2023/05/10 10:25:56;;;;;;;2.80;2.50;;;;;;;20.32;32.87;97235.14;104202;1267;100710;-74
2023/05/10 10:28:47;;;;;;;4.10;2.30;;;;;;;20.29;32.75;97233.66;104233;1275;96546;-74
2023/05/10 10:31:36;;;;;;;4.00;2.30;;;;;;;20.24;32.65;97238.73;104387;1285;95864;-75
2023/05/10 10:34:09;;;;;;;2.90;2.10;;;;;;;20.20;32.30;97237.30;104322;1276;99647;-74
2023/05/10 10:36:43;;;;;;;2.60;2.20;;;;;;;20.37;32.13;97230.49;104236;1272;100327;-77
2023/05/10 10:39:12;;;;;;;2.60;2.10;;;;;;;20.71;32.24;97227.31;104284;1268;100314;-75
2023/05/10 10:41:50;;;;;;;2.10;1.90;;;;;;;21.23;32.26;97222.13;104701;1266;95886;-74
2023/05/10 10:44:34;;;;;;;3.00;2.20;;;;;;;21.48;31.91;97220.98;104623;1268;95863;-76
2023/05/10 10:47:11;;;;;;;2.30;2.10;;;;;;;21.74;32.01;97217.28;104360;1265;101429;-73
2023/05/10 10:49:42;;;;;;;4.10;2.30;;;;;;;21.85;31.47;97215.55;104379;1265;101857;-74
2023/05/10 10:52:31;;;;;;;4.50;2.50;;;;;;;21.90;31.88;97215.48;104233;1266;100501;-75
2023/05/10 10:55:11;;;;;;;2.80;2.30;;;;;;;21.98;31.17;97216.42;104306;1269;96291;-74
2023/05/10 10:57:42;;;;;;;2.20;2.00;;;;;;;21.89;30.92;97211.59;104373;1266;96867;-72
2023/05/10 11:00:31;;;;;;;5.10;1.90;;;;;;;21.76;30.58;97212.43;104372;1275;101729;-75
2023/05/10 11:03:07;;;;;;;3.50;2.10;;;;;;;21.63;30.25;97211.44;104352;1276;101707;-77
2023/05/10 11:05:44;;;;;;;3.20;1.80;;;;;;;21.73;30.51;97209.15;104374;1277;100272;-73
2023/05/10 11:08:16;;;;;;;2.10;2.00;;;;;;;21.85;30.29;97208.84;104582;1267;97186;-78
2023/05/10 11:10:55;;;;;;;3.40;2.00;;;;;;;21.91;29.93;97202.56;104459;1263;95900;-73
2023/05/10 11:13:44;;;;;;;2.90;2.20;;;;;;;21.88;29.96;97202.02;104344;1269;101311;-74
2023/05/10 11:16:17;;;;;;;3.60;2.10;;;;;;;22.07;30.51;97202.34;104577;1266;101907;-75
2023/05/10 11:19:07;;;;;;;3.30;2.00;;;;;;;22.30;30.55;97196.55;104048;1274;98948;-74
2023/05/10 11:21:54;;;;;;;3.80;2.00;;;;;;;22.34;30.16;97197.49;104315;1265;96776;-76
2023/05/10 11:24:28;;;;;;;4.90;2.10;;;;;;;22.29;30.29;97197.16;104262;1269;96907;-75
2023/05/10 11:26:57;;;;;;;4.70;2.00;;;;;;;22.32;30.08;97196.70;104166;1266;109915;-73
2023/05/10 11:29:26;;;;;;;2.40;1.90;;;;;;;22.46;30.20;97197.14;104362;1268;101863;-73
2023/05/10 11:31:57;;;;;;;4.40;2.30;;;;;;;22.72;30.05;97193.11;104320;1271;100439;-73
2023/05/10 11:34:29;;;;;;;1.50;1.40;;;;;;;22.86;29.95;97189.64;104362;1269;95858;-77
2023/05/10 11:36:59;;;;;;;3.90;2.40;;;;;;;23.07;30.63;97190.34;104394;1266;96284;-76
2023/05/10 11:39:28;;;;;;;2.40;1.90;;;;;;;23.24;29.78;97194.39;104793;1256;101247;-73
2023/05/10 11:41:57;;;;;;;3.00;2.00;;;;;;;23.15;29.14;97190.02;104785;1260;101799;-76
2023/05/10 11:44:33;;;;;;;3.40;1.80;;;;;;;23.19;29.16;97189.01;105111;1270;100475;-74
2023/05/10 11:47:04;;;;;;;2.70;2.00;;;;;;;23.36;29.09;97189.02;104732;1267;96886;-75
2023/05/10 11:49:32;;;;;;;6.20;1.80;;;;;;;23.58;29.66;97180.28;105039;1257;96768;-74
2023/05/10 11:52:08;;;;;;;2.00;1.80;;;;;;;23.69;29.38;97179.77;105061;1257;102558;-74
2023/05/10 11:54:36;;;;;;;2.10;1.90;;;;;;;23.66;29.41;97172.57;104748;1270;101869;-74
2023/05/10 11:57:05;;;;;;;2.30;2.00;;;;;;;23.44;28.87;97179.89;104919;1261;100374;-76
2023/05/10 11:59:33;;;;;;;3.20;2.30;;;;;;;23.24;28.80;97179.73;105091;1269;95970;-73
2023/05/10 12:02:02;;;;;;;4.20;2.00;;;;;;;23.23;28.92;97175.73;104642;1261;95994;-73
2023/05/10 12:04:30;;;;;;;3.30;2.10;;;;;;;23.25;28.83;97176.26;104639;1263;101415;-72
2023/05/10 12:06:59;;;;;;;3.90;2.00;;;;;;;23.33;29.45;97177.18;104861;1270;101863;-74
2023/05/10 12:09:27;;;;;;;4.00;2.20;;;;;;;23.26;28.63;97177.13;104726;1259;100553;-76